Accueil
METAR-TAF:

METAR-TAF

Aéroports :

Aéroport de Sion

Sion, Suisse

latitude: 46-13N, longitude: 007-20E, altitude: 482 m

Observation

Le bulletin a été fait il y a 20 minutes, à 00:20 UTC
Vent calme
Température 14°C
Humidité 94%
Pression 1017 hPa
Visibilité: 8000 m
Nuages fragmentés
pluie faible

METAR: LSGS 040020Z AUTO 00000KT 8000 -RA BKN/// 14/13 Q1017

Heure: 02:40 (00:40 UTC)

Prévision

Le bulletin a été fait il y a 10 heures et 15 minutes, à 14:25 UTC
Prévision valable du 03 à 15 UTC au 03 à 24 UTC
Vent 4 kt de ouest/sud-ouest
Visibilité 10 km ou plus
Nuages épars à une hauteur de 10000 ft
Temporairement
du 03 à 17 UTC au 03 à 20 UTC
averses de pluie

TAF: LSGS 031425Z 0315/0324 25004KT 9999 SCT100 TEMPO 0317/0320 SHRA

Observations et prévisions météorologiques de plus de 4000 aéroports (messages METAR et TAF).

Les stations disponibles sont représentées par des disques jaunes et rouges sur la carte.

Passer la souris dessus pour voir le nom de la station.

Cliquer dessus pour voir les observations et prévisions météorologiques.

Pour changer de carte: cliquez sur les boutons verts avec une croix noire pour zoomer, sur le bouton vert avec un tiret pour effectuer un zoom arrière, ou sur les flèches vertes pour les cartes adjacentes.


METAR-TAF: